Terminal Aerodrome Forecast
Issued by NWS

Home | Current Version | Previous Version | Graphics & Text | Print | Product List | Glossary On
Versions: 1 2 3 4 5 6 7 8 9 10 11 12 13 14 15
249
FTUS43 KGRB 031735
TAFAUW
TAF
KAUW 031735Z 0318/0418 29004KT P6SM OVC025
     FM040400 00000KT P6SM OVC080
     FM041200 16004KT 3SM -SN OVC025
     FM041300 16005KT 2SM -SN OVC015
      TEMPO 0414/0418 3/4SM -SN OVC008=

USA.gov is the U.S. government's official web portal to all federal, state and local government web resources and services.